Whitesboro, New York
Current Conditions -  °F | °C
As of 9:53 AM on Friday 26 Dec 2014 (Local Time) from KRME Reporting Station
Overcast Overcast  
Wind Chill: 33°   Ceiling: 3000
Heat Index: 39°   Visibility: 10mi
Dew Point: 30°   Wind: 9mph
Humidity: 70%   Direction: 250°WSW
Pressure: 30.25"   Gusts: NA
Location:  43.12°N, 75.29°W
Report Text: KRME 261453Z 25008KT 10SM OVC030 04/M01 A3025 RMK AO2 SLP247 T00391011 53016
Loading
Personal Weather Stations






























Interactive Weather Map New forecast layout! Learn more

10-Day Weather Forecast

Advertisements
Track Severe Weather on mobile